Time;durP1;ratioP1;P1;durP2;ratioP2;P2;SDS_P1;SDS_P2;PMS_P1;PMS_P2;Temp;Humidity;BMP_temperature;BMP_pressure;BME280_temperature;BME280_humidity;BME280_pressure;Samples;Min_cycle;Max_cycle;Signal;HPM_P1;HPM_P2
2022/03/22 00:02:18;;;;;;;15.70;10.18;;;8.80;43.60;;;;;;5092348;28;20114;-78
2022/03/22 00:04:44;;;;;;;18.20;9.93;;;8.80;43.80;;;;;;5092872;28;20024;-78
2022/03/22 00:07:10;;;;;;;17.10;10.32;;;9.20;43.50;;;;;;5075043;28;20359;-78
2022/03/22 00:09:36;;;;;;;17.45;10.60;;;9.30;42.70;;;;;;5092263;28;20047;-78
2022/03/22 00:12:03;;;;;;;20.27;10.65;;;9.20;42.90;;;;;;5092692;28;20438;-78
2022/03/22 00:14:28;;;;;;;19.40;10.35;;;9.30;42.60;;;;;;5092359;28;20024;-77
2022/03/22 00:16:54;;;;;;;18.67;10.00;;;9.40;42.20;;;;;;5074507;28;20034;-77
2022/03/22 00:19:20;;;;;;;17.98;10.85;;;9.40;41.70;;;;;;5074462;28;20030;-79
2022/03/22 00:21:46;;;;;;;18.08;10.70;;;9.30;42.10;;;;;;5074625;28;20039;-78
2022/03/22 00:24:13;;;;;;;17.08;10.23;;;9.50;42.10;;;;;;5092908;28;20020;-78
2022/03/22 00:26:38;;;;;;;17.27;10.13;;;9.50;42.10;;;;;;5092551;28;20111;-79
2022/03/22 00:29:04;;;;;;;17.80;10.10;;;9.50;42.10;;;;;;5092689;28;20485;-78
2022/03/22 00:31:30;;;;;;;18.10;10.00;;;9.20;42.30;;;;;;5092748;28;20024;-78
2022/03/22 00:33:57;;;;;;;20.08;10.85;;;9.00;43.00;;;;;;5074514;28;20028;-77
2022/03/22 00:36:23;;;;;;;19.35;10.82;;;8.90;43.40;;;;;;5092574;28;20016;-78
2022/03/22 00:38:49;;;;;;;20.50;10.95;;;9.00;43.30;;;;;;5092587;28;20107;-77
2022/03/22 00:41:16;;;;;;;16.45;9.68;;;8.70;43.30;;;;;;5092529;28;20047;-78
2022/03/22 00:43:43;;;;;;;16.55;10.10;;;8.60;43.80;;;;;;5074440;28;20111;-78
2022/03/22 00:46:09;;;;;;;17.92;9.95;;;8.50;44.40;;;;;;5092290;28;20053;-77
2022/03/22 00:48:35;;;;;;;15.52;9.50;;;8.20;45.10;;;;;;5092237;28;20057;-77
2022/03/22 00:51:01;;;;;;;16.83;9.60;;;8.10;45.20;;;;;;5092478;28;20020;-79
2022/03/22 00:53:27;;;;;;;18.80;9.93;;;8.20;44.90;;;;;;5079964;28;20056;-79
2022/03/22 00:55:53;;;;;;;17.30;10.30;;;8.50;44.50;;;;;;5058364;28;20066;-81
2022/03/22 00:58:18;;;;;;;19.20;10.95;;;8.90;44.00;;;;;;5058352;28;20036;-78
2022/03/22 01:00:46;;;;;;;18.13;10.77;;;8.70;44.50;;;;;;5058303;28;20046;-79
2022/03/22 01:03:12;;;;;;;20.30;10.77;;;8.00;45.70;;;;;;5058209;28;20071;-79
2022/03/22 01:05:38;;;;;;;22.90;11.10;;;8.10;45.70;;;;;;5058041;28;20028;-80
2022/03/22 01:08:09;;;;;;;21.92;11.77;;;7.90;45.80;;;;;;5075746;28;20056;-78
2022/03/22 01:10:37;;;;;;;18.77;10.50;;;8.00;46.20;;;;;;5075816;28;20024;-79
2022/03/22 01:13:06;;;;;;;19.55;10.75;;;7.90;46.00;;;;;;5057998;28;20032;-79
2022/03/22 01:15:34;;;;;;;18.85;10.35;;;8.20;45.90;;;;;;5075927;28;20066;-81
2022/03/22 01:18:06;;;;;;;19.60;11.05;;;8.20;45.20;;;;;;5057921;28;20024;-79
2022/03/22 01:20:34;;;;;;;18.38;11.02;;;8.10;45.90;;;;;;5075839;28;20025;-79
2022/03/22 01:23:02;;;;;;;17.92;10.70;;;8.00;45.70;;;;;;5075823;28;20108;-78
2022/03/22 01:25:28;;;;;;;18.35;10.80;;;8.00;45.90;;;;;;5057822;28;20032;-78
2022/03/22 01:27:55;;;;;;;23.00;11.18;;;8.00;46.10;;;;;;5057712;28;20044;-81
2022/03/22 01:30:22;;;;;;;19.65;10.82;;;8.20;46.00;;;;;;5064399;28;20382;-79
2022/03/22 01:32:50;;;;;;;19.48;10.50;;;8.40;45.40;;;;;;5095888;28;20387;-79
2022/03/22 01:35:16;;;;;;;19.77;10.68;;;8.40;44.90;;;;;;5077703;28;20111;-78
2022/03/22 01:37:43;;;;;;;17.50;10.32;;;8.60;44.70;;;;;;5077510;28;20055;-80
2022/03/22 01:40:09;;;;;;;19.05;10.00;;;8.80;44.20;;;;;;5095899;28;20020;-78
2022/03/22 01:42:37;;;;;;;18.10;10.32;;;8.90;44.00;;;;;;5077495;28;20415;-78
2022/03/22 01:45:04;;;;;;;17.42;10.25;;;8.80;44.20;;;;;;5077377;28;20032;-80
2022/03/22 01:47:30;;;;;;;18.83;10.38;;;8.40;44.20;;;;;;5077348;28;20043;-79
2022/03/22 01:49:56;;;;;;;19.00;10.32;;;8.40;44.30;;;;;;5095572;28;20382;-80
2022/03/22 01:52:24;;;;;;;16.58;10.32;;;8.60;44.50;;;;;;5077407;28;20020;-80
2022/03/22 01:54:55;;;;;;;19.85;10.50;;;8.80;44.00;;;;;;5077271;28;20028;-79
2022/03/22 01:57:22;;;;;;;17.17;10.02;;;8.50;44.20;;;;;;5077409;28;20028;-79
2022/03/22 01:59:48;;;;;;;18.30;10.07;;;8.30;44.80;;;;;;5077166;28;20127;-79
2022/03/22 02:07:48;;;;;;;17.40;9.70;;;8.50;44.20;;;;;;5095186;28;20085;-80
2022/03/22 02:10:14;;;;;;;19.88;9.13;;;8.40;44.30;;;;;;5095131;28;20016;-79
2022/03/22 02:12:43;;;;;;;16.95;9.73;;;8.40;43.80;;;;;;5077117;28;20395;-80
2022/03/22 02:15:08;;;;;;;19.67;10.00;;;8.10;44.70;;;;;;5095115;28;20104;-80
2022/03/22 02:17:35;;;;;;;15.32;9.70;;;8.10;44.90;;;;;;5076965;28;20123;-79
2022/03/22 02:20:01;;;;;;;16.88;9.05;;;8.20;44.50;;;;;;5094547;28;20368;-80
2022/03/22 02:22:35;;;;;;;16.08;9.65;;;8.50;44.20;;;;;;5094850;28;20036;-79
2022/03/22 02:25:02;;;;;;;15.65;9.82;;;8.80;43.70;;;;;;5094746;28;20028;-79
2022/03/22 02:27:29;;;;;;;19.48;9.88;;;8.90;43.40;;;;;;5094276;28;20051;-80
2022/03/22 02:29:56;;;;;;;18.17;9.73;;;9.00;43.00;;;;;;5076646;28;20016;-80
2022/03/22 02:32:25;;;;;;;15.48;9.10;;;8.90;43.00;;;;;;5076633;28;20028;-79
2022/03/22 02:34:51;;;;;;;18.17;9.50;;;9.00;43.20;;;;;;5094527;28;20031;-80
2022/03/22 02:37:16;;;;;;;20.25;10.15;;;9.00;43.10;;;;;;5094746;28;20024;-79
2022/03/22 02:39:42;;;;;;;18.65;10.05;;;8.90;43.20;;;;;;5094285;28;20024;-79
2022/03/22 02:42:08;;;;;;;17.40;9.88;;;9.00;43.60;;;;;;5094198;28;20016;-79
2022/03/22 02:44:34;;;;;;;17.55;9.95;;;8.90;43.50;;;;;;5094660;28;20085;-79
2022/03/22 02:47:00;;;;;;;16.55;9.77;;;8.90;43.50;;;;;;5075957;28;20107;-80
2022/03/22 02:49:25;;;;;;;15.77;9.77;;;8.70;44.60;;;;;;5076537;28;20028;-80
2022/03/22 02:51:51;;;;;;;18.15;10.25;;;8.70;44.00;;;;;;5094458;28;20074;-80
2022/03/22 02:54:16;;;;;;;17.98;9.95;;;8.70;44.00;;;;;;5074826;28;20021;-79
2022/03/22 02:56:42;;;;;;;18.15;9.73;;;8.70;44.40;;;;;;5056337;28;20079;-79
2022/03/22 02:59:13;;;;;;;20.08;9.38;;;8.70;44.20;;;;;;5074187;28;20027;-79
2022/03/22 03:01:39;;;;;;;18.88;9.80;;;8.60;44.50;;;;;;5056234;28;20483;-79
2022/03/22 03:04:05;;;;;;;19.17;10.75;;;8.70;44.40;;;;;;5056144;28;20058;-80
2022/03/22 03:06:31;;;;;;;16.77;9.98;;;8.70;44.30;;;;;;5055934;28;20033;-79
2022/03/22 03:09:00;;;;;;;18.27;10.65;;;8.80;44.40;;;;;;5073745;28;20090;-80
2022/03/22 03:11:26;;;;;;;20.00;10.15;;;8.50;45.50;;;;;;5056010;28;20021;-80
2022/03/22 03:16:39;;;;;;;16.52;9.98;;;8.20;45.10;;;;;;5073734;28;20071;-79
2022/03/22 03:19:06;;;;;;;17.38;10.70;;;8.20;45.30;;;;;;5055861;28;20107;-80
2022/03/22 03:21:32;;;;;;;20.50;10.85;;;8.40;44.90;;;;;;5055900;28;20032;-80
2022/03/22 03:23:58;;;;;;;16.92;9.32;;;8.40;44.80;;;;;;5055899;28;20047;-81
2022/03/22 03:26:24;;;;;;;17.92;10.15;;;8.10;44.80;;;;;;5055812;28;20020;-80
2022/03/22 03:28:50;;;;;;;16.35;10.35;;;8.10;45.20;;;;;;5055765;28;20086;-80
2022/03/22 03:31:16;;;;;;;17.67;9.38;;;8.10;45.10;;;;;;5055795;28;20052;-79
2022/03/22 03:33:42;;;;;;;18.00;9.88;;;7.80;45.00;;;;;;5055651;28;20024;-80
2022/03/22 03:36:08;;;;;;;17.65;9.93;;;7.70;45.60;;;;;;5073466;28;20025;-79
2022/03/22 03:38:41;;;;;;;17.15;9.45;;;7.90;45.50;;;;;;5055604;28;20031;-80
2022/03/22 03:43:55;;;;;;;18.30;9.40;;;8.30;44.80;;;;;;5073827;28;20039;-81
2022/03/22 03:49:06;;;;;;;17.73;10.07;;;8.00;45.50;;;;;;5073388;28;20093;-81
2022/03/22 03:51:35;;;;;;;16.35;9.70;;;8.00;45.10;;;;;;5055424;28;20119;-80
2022/03/22 03:54:02;;;;;;;15.77;10.65;;;7.70;45.70;;;;;;5067856;28;20758;-81
2022/03/22 03:56:28;;;;;;;16.27;9.40;;;7.50;45.90;;;;;;5075612;28;20475;-80
2022/03/22 03:58:56;;;;;;;19.25;10.23;;;7.20;46.60;;;;;;5075258;28;20024;-79
2022/03/22 04:01:23;;;;;;;17.38;10.35;;;7.20;47.00;;;;;;5075478;28;20028;-80
2022/03/22 04:03:49;;;;;;;16.00;9.60;;;7.10;47.20;;;;;;5075243;28;20043;-80
2022/03/22 04:06:14;;;;;;;16.23;9.30;;;7.30;46.70;;;;;;5075511;28;20028;-80
2022/03/22 04:08:40;;;;;;;18.95;10.15;;;7.50;46.50;;;;;;5093089;28;20058;-80
2022/03/22 04:11:06;;;;;;;20.85;9.60;;;7.40;46.90;;;;;;5075376;28;20051;-81
2022/03/22 04:13:31;;;;;;;18.38;9.98;;;7.40;46.60;;;;;;5093315;28;20028;-80
2022/03/22 04:15:57;;;;;;;14.93;9.18;;;7.70;46.10;;;;;;5093280;28;20089;-80
2022/03/22 04:18:23;;;;;;;16.25;9.70;;;7.50;45.70;;;;;;5075194;28;20028;-80
2022/03/22 04:20:49;;;;;;;20.05;10.25;;;7.20;46.50;;;;;;5093467;28;20023;-80
2022/03/22 04:23:15;;;;;;;15.98;9.90;;;7.10;47.20;;;;;;5075374;28;20024;-82
2022/03/22 04:25:41;;;;;;;15.98;9.75;;;7.30;46.90;;;;;;5075139;28;20062;-79
2022/03/22 04:33:36;;;;;;;18.92;10.63;;;7.40;45.90;;;;;;5097742;28;20101;-80
2022/03/22 04:36:02;;;;;;;16.27;9.52;;;7.60;45.90;;;;;;5079067;28;20050;-81
2022/03/22 04:38:28;;;;;;;16.77;10.20;;;7.60;45.50;;;;;;5079257;28;20028;-81
2022/03/22 04:40:53;;;;;;;18.50;10.10;;;7.60;45.60;;;;;;5079285;28;20390;-80
2022/03/22 04:43:19;;;;;;;16.88;9.13;;;7.70;45.60;;;;;;5096967;28;20032;-81
2022/03/22 04:45:45;;;;;;;18.50;9.20;;;7.80;45.50;;;;;;5097129;28;20054;-80
2022/03/22 04:48:10;;;;;;;18.23;9.77;;;7.90;45.20;;;;;;5096557;28;20039;-78
2022/03/22 04:50:36;;;;;;;19.90;10.32;;;7.80;45.80;;;;;;5078632;28;20020;-80
2022/03/22 04:56:43;;;;;;;16.27;9.63;;;7.40;46.50;;;;;;5096827;28;20034;-79
2022/03/22 04:58:34;;;;;;;16.15;10.02;;;7.60;46.10;;;;;;5096628;28;20035;-80
2022/03/22 05:01:00;;;;;;;18.77;9.85;;;7.70;45.90;;;;;;5078752;28;20028;-79
2022/03/22 05:03:26;;;;;;;18.77;10.30;;;7.70;46.00;;;;;;5096494;28;20467;-80
2022/03/22 05:08:35;;;;;;;17.88;10.15;;;7.80;46.10;;;;;;5096806;28;20532;-80
2022/03/22 05:11:01;;;;;;;17.35;9.88;;;7.80;46.20;;;;;;5078498;28;20028;-83
2022/03/22 05:13:27;;;;;;;19.27;10.38;;;7.60;46.60;;;;;;5096130;28;20020;-79
2022/03/22 05:15:52;;;;;;;16.98;9.68;;;7.80;46.70;;;;;;5095034;28;20059;-80
2022/03/22 05:18:20;;;;;;;21.17;10.52;;;7.70;47.00;;;;;;5095722;28;20028;-80
2022/03/22 05:20:46;;;;;;;17.20;9.60;;;7.90;46.70;;;;;;5078131;28;20489;-82
2022/03/22 05:23:12;;;;;;;15.13;9.02;;;7.90;46.60;;;;;;5078088;28;20020;-80
2022/03/22 05:25:38;;;;;;;17.20;9.95;;;7.90;46.60;;;;;;5096108;28;20044;-81
2022/03/22 05:28:04;;;;;;;15.73;9.60;;;8.10;46.20;;;;;;5076716;28;20066;-80
2022/03/22 05:30:31;;;;;;;17.48;10.30;;;8.30;46.10;;;;;;5076640;28;20107;-81
2022/03/22 05:32:57;;;;;;;17.08;9.48;;;8.50;45.90;;;;;;5076717;28;20016;-80
2022/03/22 05:35:23;;;;;;;18.98;10.43;;;8.50;46.00;;;;;;5094489;28;20028;-79
2022/03/22 05:37:50;;;;;;;28.00;13.38;;;8.80;45.70;;;;;;5076491;28;20020;-79
2022/03/22 05:40:17;;;;;;;77.05;32.08;;;9.00;45.20;;;;;;5094183;28;20038;-79
2022/03/22 05:42:43;;;;;;;18.98;11.40;;;9.30;45.00;;;;;;5076732;28;20023;-78
2022/03/22 05:45:11;;;;;;;29.23;15.35;;;9.20;44.90;;;;;;5076698;28;20020;-79
2022/03/22 05:47:36;;;;;;;23.70;12.95;;;9.30;45.20;;;;;;5077041;28;20031;-79
2022/03/22 05:50:05;;;;;;;23.65;12.43;;;9.40;44.90;;;;;;5077506;28;20428;-78
2022/03/22 05:52:31;;;;;;;20.67;10.65;;;9.40;45.10;;;;;;5090335;28;20033;-79
2022/03/22 05:54:57;;;;;;;21.35;11.20;;;9.60;45.00;;;;;;5074957;28;20032;-79
2022/03/22 05:57:23;;;;;;;20.33;10.52;;;9.60;45.30;;;;;;5075214;28;20379;-79
2022/03/22 05:59:48;;;;;;;19.85;11.57;;;9.70;45.30;;;;;;5056849;28;20103;-77
2022/03/22 06:02:14;;;;;;;20.25;11.75;;;9.90;45.10;;;;;;5071457;28;20028;-79
2022/03/22 06:04:41;;;;;;;23.67;12.32;;;10.00;45.60;;;;;;5076271;28;20028;-80
2022/03/22 06:07:06;;;;;;;18.58;12.20;;;10.00;45.60;;;;;;5075972;28;20032;-82
2022/03/22 06:09:32;;;;;;;16.58;10.57;;;10.10;45.40;;;;;;5093211;28;20056;-82
2022/03/22 06:11:57;;;;;;;18.10;11.35;;;10.20;46.00;;;;;;5094963;28;20020;-81
2022/03/22 06:14:23;;;;;;;20.38;11.98;;;10.30;45.90;;;;;;5077468;28;20111;-81
2022/03/22 06:16:49;;;;;;;21.48;11.75;;;10.50;45.50;;;;;;5084326;28;20097;-79
2022/03/22 06:19:14;;;;;;;20.67;11.68;;;10.30;45.90;;;;;;5095562;28;20078;-80
2022/03/22 06:21:40;;;;;;;21.75;12.18;;;10.50;45.30;;;;;;5094928;28;20031;-80
2022/03/22 06:24:06;;;;;;;21.08;11.68;;;10.70;45.10;;;;;;5094966;28;20020;-79
2022/03/22 06:26:32;;;;;;;20.45;12.13;;;10.90;45.90;;;;;;5077215;28;20039;-82
2022/03/22 06:29:00;;;;;;;20.85;11.65;;;11.00;45.20;;;;;;5088799;28;20040;-78
2022/03/22 06:31:27;;;;;;;19.20;12.02;;;11.00;45.20;;;;;;5087343;28;20094;-76
2022/03/22 06:33:53;;;;;;;37.25;22.02;;;10.90;45.20;;;;;;5083052;28;20032;-81
2022/03/22 06:36:18;;;;;;;27.90;18.25;;;11.00;45.20;;;;;;5076394;28;20020;-79
2022/03/22 06:38:44;;;;;;;29.00;15.05;;;10.70;46.00;;;;;;5079677;28;20028;-78
2022/03/22 06:41:10;;;;;;;24.85;14.65;;;10.80;46.00;;;;;;5091628;28;20066;-81
2022/03/22 06:43:36;;;;;;;51.67;15.27;;;11.00;46.10;;;;;;5092582;28;20066;-79
2022/03/22 06:46:02;;;;;;;31.40;14.50;;;11.40;45.00;;;;;;5076726;28;20027;-79
2022/03/22 06:48:27;;;;;;;23.42;13.27;;;11.60;45.00;;;;;;5076354;28;20562;-77
2022/03/22 06:50:53;;;;;;;22.42;13.45;;;12.00;44.40;;;;;;5061395;28;20079;-79
2022/03/22 06:53:19;;;;;;;23.10;13.38;;;12.20;43.70;;;;;;5075735;28;20467;-78
2022/03/22 06:55:45;;;;;;;23.63;14.10;;;12.30;43.70;;;;;;5075387;28;20020;-78
2022/03/22 06:58:12;;;;;;;20.25;12.88;;;12.50;44.30;;;;;;5088639;28;20058;-78
2022/03/22 07:00:37;;;;;;;29.33;19.08;;;12.80;44.30;;;;;;5091798;28;20051;-80
2022/03/22 07:03:04;;;;;;;28.13;18.60;;;13.20;43.70;;;;;;5059866;28;20135;-79
2022/03/22 07:05:30;;;;;;;24.55;15.95;;;13.60;43.40;;;;;;5073594;28;20432;-79
2022/03/22 07:07:56;;;;;;;25.38;13.98;;;13.80;42.90;;;;;;5073389;28;20045;-79
2022/03/22 07:10:22;;;;;;;23.63;14.10;;;13.30;42.10;;;;;;5072750;28;20024;-78
2022/03/22 07:12:57;;;;;;;20.55;12.48;;;13.50;42.60;;;;;;5055126;28;20033;-79
2022/03/22 07:15:27;;;;;;;24.63;13.88;;;14.00;41.70;;;;;;5055442;28;20021;-78
2022/03/22 07:17:53;;;;;;;20.23;12.13;;;14.50;41.80;;;;;;5055139;28;20045;-77
2022/03/22 07:20:20;;;;;;;19.85;11.55;;;14.90;39.40;;;;;;5055493;28;20424;-79
2022/03/22 07:22:47;;;;;;;16.30;9.68;;;15.10;37.70;;;;;;5073251;28;20108;-78
2022/03/22 07:25:12;;;;;;;18.88;9.95;;;15.20;35.00;;;;;;5055081;28;20111;-79
2022/03/22 07:27:38;;;;;;;64.18;35.10;;;14.90;34.60;;;;;;5054729;28;20147;-79
2022/03/22 07:30:05;;;;;;;42.17;24.63;;;14.60;36.60;;;;;;5073257;28;20020;-79
2022/03/22 07:32:31;;;;;;;20.13;13.20;;;15.30;35.50;;;;;;5055188;28;20094;-79
2022/03/22 07:35:00;;;;;;;16.15;10.65;;;15.70;34.20;;;;;;5072680;28;20479;-79
2022/03/22 07:37:29;;;;;;;18.60;11.23;;;15.10;32.90;;;;;;5054996;28;20028;-79
2022/03/22 07:39:59;;;;;;;27.48;15.68;;;15.20;35.00;;;;;;5055127;28;20111;-78
2022/03/22 07:42:29;;;;;;;26.17;16.63;;;16.10;34.00;;;;;;5055231;28;20024;-78
2022/03/22 07:44:56;;;;;;;;;;;17.00;34.00;;;;;;5073652;28;20103;-80
2022/03/22 07:47:22;;;;;;;19.40;12.05;;;17.60;32.00;;;;;;5072920;28;20357;-80
2022/03/22 07:55:17;;;;;;;22.98;15.15;;;22.40;30.10;;;;;;5073322;28;20095;-81
2022/03/22 07:57:44;;;;;;;17.40;11.73;;;23.30;29.10;;;;;;5072992;28;20031;-80
2022/03/22 08:00:10;;;;;;;19.20;12.30;;;22.60;29.20;;;;;;5072934;28;20025;-80
2022/03/22 08:02:37;;;;;;;17.63;12.27;;;23.00;29.30;;;;;;5072272;28;20024;-80
2022/03/22 08:05:06;;;;;;;17.40;11.05;;;23.80;29.40;;;;;;5072871;28;20029;-81
2022/03/22 08:07:31;;;;;;;15.15;10.93;;;24.90;28.70;;;;;;5072579;28;20506;-80
2022/03/22 08:09:57;;;;;;;17.35;11.48;;;25.70;28.80;;;;;;5055044;28;20078;-81
2022/03/22 08:12:23;;;;;;;20.50;11.27;;;27.20;28.40;;;;;;5055262;28;20016;-82
2022/03/22 08:14:48;;;;;;;15.43;10.35;;;25.80;27.90;;;;;;5054946;28;20467;-81
2022/03/22 08:17:14;;;;;;;13.80;10.10;;;25.70;28.50;;;;;;5055139;28;20471;-82
2022/03/22 08:19:40;;;;;;;18.23;10.93;;;26.60;27.90;;;;;;5073142;28;20028;-82
2022/03/22 08:22:06;;;;;;;17.10;11.18;;;27.90;28.50;;;;;;5054532;28;20445;-82
2022/03/22 08:24:31;;;;;;;17.80;11.25;;;29.10;28.20;;;;;;5054997;28;20032;-82
2022/03/22 08:26:57;;;;;;;17.65;11.45;;;29.10;28.50;;;;;;5072839;28;20025;-82
2022/03/22 08:29:25;;;;;;;17.98;11.15;;;28.50;27.70;;;;;;5054821;28;20033;-81
2022/03/22 08:31:52;;;;;;;17.63;11.45;;;27.80;27.40;;;;;;5072907;28;20162;-81
2022/03/22 08:34:19;;;;;;;21.25;14.45;;;28.20;27.70;;;;;;5055039;28;20114;-81
2022/03/22 08:36:45;;;;;;;18.05;11.52;;;27.10;27.60;;;;;;5054885;28;20028;-81
2022/03/22 08:39:11;;;;;;;18.60;11.95;;;27.10;28.00;;;;;;5054620;28;20028;-82
2022/03/22 08:41:36;;;;;;;17.45;12.15;;;27.70;28.10;;;;;;5073229;28;20521;-82
2022/03/22 08:44:02;;;;;;;17.08;12.18;;;27.90;27.70;;;;;;5055373;28;20020;-82
2022/03/22 08:46:28;;;;;;;19.60;12.70;;;27.90;27.10;;;;;;5054940;28;20139;-81
2022/03/22 08:48:55;;;;;;;27.17;12.60;;;27.80;27.20;;;;;;5072661;28;20111;-81
2022/03/22 08:51:24;;;;;;;20.73;13.73;;;27.80;27.50;;;;;;5072802;28;20029;-82
2022/03/22 08:53:50;;;;;;;20.30;12.35;;;28.10;27.40;;;;;;5054620;28;20056;-81
2022/03/22 08:56:16;;;;;;;19.65;12.65;;;29.40;28.50;;;;;;5072649;28;20035;-81
2022/03/22 08:58:42;;;;;;;17.35;12.43;;;29.50;27.00;;;;;;5072217;28;20033;-82
2022/03/22 09:01:08;;;;;;;17.75;13.13;;;29.90;27.20;;;;;;5054285;28;20082;-81
2022/03/22 09:03:35;;;;;;;18.52;12.90;;;29.60;27.00;;;;;;5071969;28;20031;-81
2022/03/22 09:06:12;;;;;;;18.48;12.65;;;28.70;27.30;;;;;;5072350;28;20027;-81
2022/03/22 09:08:42;;;;;;;19.05;12.90;;;28.50;27.40;;;;;;5054043;28;20135;-81
2022/03/22 09:11:09;;;;;;;18.40;12.98;;;29.00;26.90;;;;;;5054590;28;20017;-82
2022/03/22 09:13:35;;;;;;;17.90;12.38;;;29.10;27.40;;;;;;5054382;28;20029;-82
2022/03/22 09:16:01;;;;;;;16.73;12.52;;;29.40;27.30;;;;;;5056658;28;20425;-82
2022/03/22 09:18:26;;;;;;;18.70;13.57;;;30.70;27.30;;;;;;5058162;28;20055;-82
2022/03/22 09:20:52;;;;;;;18.88;12.60;;;31.50;27.00;;;;;;5075756;28;20025;-82
2022/03/22 09:23:19;;;;;;;21.15;14.23;;;31.30;26.80;;;;;;5075680;28;20035;-82
2022/03/22 09:25:46;;;;;;;16.80;12.52;;;31.80;26.70;;;;;;5075852;28;20028;-82
2022/03/22 09:28:12;;;;;;;20.40;12.90;;;32.50;27.20;;;;;;5057826;28;20436;-82
2022/03/22 09:30:39;;;;;;;18.63;13.40;;;32.90;26.50;;;;;;5057595;28;20029;-82
2022/03/22 09:33:07;;;;;;;17.77;12.75;;;32.70;26.90;;;;;;5075557;28;20028;-82
2022/03/22 09:35:34;;;;;;;17.73;12.20;;;33.10;26.90;;;;;;5057748;28;20394;-82
2022/03/22 09:38:00;;;;;;;18.05;12.00;;;34.00;26.70;;;;;;5075482;28;20155;-82
2022/03/22 09:40:27;;;;;;;18.05;12.68;;;34.60;27.00;;;;;;5057622;28;20112;-82
2022/03/22 09:42:54;;;;;;;17.88;13.30;;;35.20;27.30;;;;;;5057661;28;20021;-82
2022/03/22 09:45:29;;;;;;;19.25;12.48;;;34.60;27.50;;;;;;5057389;28;20027;-82
2022/03/22 09:47:56;;;;;;;17.20;12.57;;;35.40;27.00;;;;;;5057402;28;20530;-82
2022/03/22 09:51:44;;;;;;;18.30;12.45;;;33.90;26.30;;;;;;5075496;28;20108;-82
2022/03/22 09:53:13;;;;;;;17.15;12.40;;;31.80;26.70;;;;;;5075432;28;20380;-82
2022/03/22 09:55:40;;;;;;;;;;;30.70;26.60;;;;;;5075868;28;20052;-82
2022/03/22 09:58:05;;;;;;;20.15;12.43;;;30.10;26.80;;;;;;5075128;28;19908;-82
2022/03/22 10:00:32;;;;;;;21.95;12.07;;;30.90;26.80;;;;;;5057392;28;20028;-83
2022/03/22 10:02:58;;;;;;;14.32;11.65;;;31.70;26.70;;;;;;5075338;28;20025;-83
2022/03/22 10:05:26;;;;;;;17.65;13.07;;;31.60;26.20;;;;;;5057285;28;20391;-82
2022/03/22 10:08:07;;;;;;;18.92;12.80;;;31.50;26.30;;;;;;5056961;28;20060;-82
2022/03/22 10:10:34;;;;;;;18.10;12.23;;;31.90;26.40;;;;;;5056936;28;20024;-82
2022/03/22 10:13:04;;;;;;;18.25;11.70;;;32.40;26.50;;;;;;5057035;28;20043;-83
2022/03/22 10:15:36;;;;;;;16.80;12.23;;;32.70;25.90;;;;;;5057110;28;20024;-83
2022/03/22 10:18:07;;;;;;;16.50;12.43;;;32.40;26.70;;;;;;5074779;28;20040;-82
2022/03/22 10:20:36;;;;;;;17.65;12.50;;;33.70;27.60;;;;;;5074850;28;20025;-83
2022/03/22 10:23:03;;;;;;;16.65;12.30;;;35.10;27.30;;;;;;5056962;28;20487;-82
2022/03/22 10:25:33;;;;;;;17.08;11.63;;;36.10;26.60;;;;;;5056779;28;20055;-82
2022/03/22 10:28:02;;;;;;;14.95;10.38;;;37.10;26.70;;;;;;5074650;28;20063;-82
2022/03/22 10:30:29;;;;;;;16.63;10.43;;;36.80;26.10;;;;;;5074478;28;20024;-82
2022/03/22 10:32:55;;;;;;;14.80;9.85;;;36.70;26.20;;;;;;5074628;28;20028;-83
2022/03/22 10:35:29;;;;;;;14.73;10.93;;;36.20;25.70;;;;;;5056653;28;20031;-83
2022/03/22 10:38:01;;;;;;;16.40;10.38;;;35.90;25.90;;;;;;5074360;28;20032;-83
2022/03/22 10:40:35;;;;;;;14.68;10.60;;;34.60;25.40;;;;;;5056661;28;20066;-83
2022/03/22 10:43:09;;;;;;;13.63;10.20;;;34.50;26.10;;;;;;5074574;28;20024;-84
2022/03/22 10:45:54;;;;;;;17.52;10.50;;;33.80;25.50;;;;;;5056983;28;20021;-84
2022/03/22 10:48:27;;;;;;;14.40;10.05;;;33.30;26.60;;;;;;5074731;28;20388;-83
2022/03/22 10:50:55;;;;;;;13.85;10.63;;;34.00;26.30;;;;;;5074155;28;20024;-82
2022/03/22 10:53:26;;;;;;;13.23;9.38;;;34.50;25.70;;;;;;5056365;28;20667;-83
2022/03/22 10:55:53;;;;;;;13.18;9.73;;;34.90;26.40;;;;;;5056060;28;20028;-82
2022/03/22 10:58:22;;;;;;;10.63;7.93;;;35.90;26.00;;;;;;5074225;28;20021;-82
2022/03/22 11:00:49;;;;;;;12.65;7.45;;;35.90;25.50;;;;;;5074219;28;20543;-82
2022/03/22 11:03:17;;;;;;;12.15;7.28;;;35.20;25.30;;;;;;5073828;28;20026;-83
2022/03/22 11:05:51;;;;;;;10.30;7.18;;;33.80;25.70;;;;;;5056215;28;20131;-83
2022/03/22 11:08:22;;;;;;;10.50;7.32;;;32.70;24.90;;;;;;5073780;28;20398;-83
2022/03/22 11:10:49;;;;;;;12.65;7.70;;;32.60;25.70;;;;;;5074131;28;20123;-82
2022/03/22 11:13:15;;;;;;;11.45;8.20;;;33.20;25.80;;;;;;5073853;28;20406;-83
2022/03/22 11:15:45;;;;;;;15.60;8.25;;;32.60;25.90;;;;;;5055800;28;20479;-83
2022/03/22 11:18:12;;;;;;;11.65;8.15;;;31.20;25.60;;;;;;5055959;28;20033;-82
2022/03/22 11:21:01;;;;;;;15.23;7.90;;;29.10;25.50;;;;;;5055597;28;20035;-82
2022/03/22 11:23:30;;;;;;;12.90;8.13;;;27.80;25.60;;;;;;5073704;28;20107;-82
2022/03/22 11:26:10;;;;;;;13.75;7.88;;;26.60;26.10;;;;;;5055910;28;20525;-83
2022/03/22 11:28:38;;;;;;;12.05;7.28;;;25.90;25.80;;;;;;5055279;28;20041;-83
2022/03/22 11:31:06;;;;;;;11.15;8.07;;;25.30;25.90;;;;;;5055802;28;20119;-82
2022/03/22 11:36:18;;;;;;;10.73;7.60;;;24.50;25.80;;;;;;5073724;28;20044;-82
2022/03/22 11:38:52;;;;;;;11.63;7.10;;;24.40;26.20;;;;;;5055186;28;20059;-82
2022/03/22 11:44:24;;;;;;;9.85;7.72;;;24.30;26.40;;;;;;4972712;28;20437;-82
2022/03/22 11:47:06;;;;;;;11.23;7.55;;;24.80;26.00;;;;;;4973093;28;20481;-82
2022/03/22 11:49:47;;;;;;;11.15;6.60;;;24.80;26.30;;;;;;4956381;28;20058;-82
2022/03/22 11:52:13;;;;;;;9.65;6.57;;;24.60;26.80;;;;;;4972767;28;20070;-83
2022/03/22 11:54:51;;;;;;;9.70;7.03;;;24.80;26.70;;;;;;4972730;28;20031;-82
2022/03/22 11:57:17;;;;;;;10.43;7.25;;;24.50;26.20;;;;;;4972586;28;20023;-82
2022/03/22 11:59:46;;;;;;;10.80;7.15;;;24.40;27.10;;;;;;4972488;28;20117;-82
2022/03/22 12:02:17;;;;;;;9.60;6.10;;;24.80;27.00;;;;;;4972462;28;20078;-82
2022/03/22 12:04:51;;;;;;;9.32;6.20;;;24.60;26.60;;;;;;4972647;28;20031;-83
2022/03/22 12:07:22;;;;;;;10.80;6.50;;;23.60;26.80;;;;;;4972456;28;20470;-82
2022/03/22 12:09:48;;;;;;;9.68;6.68;;;23.50;26.70;;;;;;4972537;28;20066;-82
2022/03/22 12:12:15;;;;;;;8.63;6.25;;;23.30;26.70;;;;;;4972554;28;20066;-82
2022/03/22 12:14:42;;;;;;;10.73;6.40;;;23.30;27.10;;;;;;4972441;28;20038;-82
2022/03/22 12:17:08;;;;;;;10.68;7.03;;;23.40;26.80;;;;;;4972470;28;20066;-82
2022/03/22 12:19:35;;;;;;;9.02;6.47;;;23.30;27.80;;;;;;4956374;28;20027;-82
2022/03/22 12:22:02;;;;;;;14.20;6.93;;;22.70;26.80;;;;;;5060176;28;20040;-82
2022/03/22 12:24:33;;;;;;;9.27;6.32;;;22.90;27.70;;;;;;5073873;28;20052;-83
2022/03/22 12:27:11;;;;;;;8.75;6.25;;;22.70;27.50;;;;;;5073374;28;20158;-83
2022/03/22 12:29:41;;;;;;;8.48;5.85;;;22.80;27.20;;;;;;5073277;28;20471;-82
2022/03/22 12:32:16;;;;;;;14.10;8.73;;;23.50;27.30;;;;;;5055907;28;20025;-83
2022/03/22 12:34:43;;;;;;;9.73;7.60;;;23.90;27.80;;;;;;5055459;28;20039;-82
2022/03/22 12:37:09;;;;;;;11.55;6.88;;;24.20;27.00;;;;;;5055393;28;20021;-83
2022/03/22 12:39:37;;;;;;;9.57;7.13;;;24.50;27.10;;;;;;5055356;28;20031;-83
2022/03/22 12:42:03;;;;;;;10.05;5.32;;;24.60;27.30;;;;;;5073074;28;20074;-83
2022/03/22 12:44:31;;;;;;;7.40;4.88;;;24.90;27.60;;;;;;5073486;28;20069;-83
2022/03/22 12:46:57;;;;;;;11.52;6.45;;;25.20;26.90;;;;;;5073647;28;20029;-86
2022/03/22 12:49:23;;;;;;;10.70;7.35;;;25.30;27.70;;;;;;5056078;28;20036;-84
2022/03/22 12:51:49;;;;;;;23.27;7.75;;;25.20;27.60;;;;;;5059387;28;20039;-83
2022/03/22 12:54:17;;;;;;;10.20;6.68;;;25.30;27.40;;;;;;5059028;28;20021;-82
2022/03/22 12:56:48;;;;;;;11.85;7.50;;;25.30;27.30;;;;;;5059227;28;20486;-84
2022/03/22 12:59:19;;;;;;;12.57;8.70;;;25.10;27.80;;;;;;5059104;28;20024;-83
2022/03/22 13:01:44;;;;;;;18.50;9.18;;;25.00;27.20;;;;;;5059122;28;20468;-84
2022/03/22 13:04:10;;;;;;;14.23;9.05;;;25.00;27.10;;;;;;5058922;28;20055;-84
2022/03/22 13:06:36;;;;;;;13.77;8.65;;;25.20;27.90;;;;;;5076589;28;20044;-84
2022/03/22 13:11:46;;;;;;;17.10;10.07;;;25.30;28.10;;;;;;5076664;28;20090;-84
2022/03/22 13:16:58;;;;;;;18.75;10.85;;;25.20;27.50;;;;;;5076656;28;20118;-84
2022/03/22 13:19:32;;;;;;;19.02;11.40;;;25.50;28.40;;;;;;5058637;28;20025;-82